Time;durP1;ratioP1;P1;durP2;ratioP2;P2;SDS_P1;SDS_P2;PMS_P1;PMS_P2;Temp;Humidity;BMP_temperature;BMP_pressure;BME280_temperature;BME280_humidity;BME280_pressure;Samples;Min_cycle;Max_cycle;Signal;HPM_P1;HPM_P2
2022/11/12 00:00:58;;;;;;;12.43;7.70;;;21.10;49.10;;;;;;5030429;28;20051;-64
2022/11/12 00:03:26;;;;;;;9.80;6.93;;;21.10;49.00;;;;;;5030322;28;20061;-64
2022/11/12 00:05:53;;;;;;;9.13;7.13;;;21.10;49.10;;;;;;5015003;28;20137;-64
2022/11/12 00:08:20;;;;;;;11.23;7.75;;;21.00;49.10;;;;;;5009594;28;20061;-64
2022/11/12 00:10:48;;;;;;;10.20;7.00;;;21.00;49.20;;;;;;5010404;28;20400;-64
2022/11/12 00:13:15;;;;;;;9.82;7.18;;;21.00;49.20;;;;;;5010376;28;20161;-64
2022/11/12 00:15:42;;;;;;;9.75;6.93;;;21.00;49.20;;;;;;5009647;28;20068;-64
2022/11/12 00:18:09;;;;;;;9.77;7.25;;;21.00;49.20;;;;;;5009808;28;20556;-64
2022/11/12 00:20:36;;;;;;;8.63;6.43;;;21.00;49.20;;;;;;5010741;28;20052;-64
2022/11/12 00:23:04;;;;;;;10.07;7.20;;;21.00;49.30;;;;;;5009243;28;20501;-64
2022/11/12 00:25:31;;;;;;;9.85;7.05;;;20.90;49.20;;;;;;5005527;28;20054;-64
2022/11/12 00:28:03;;;;;;;11.00;7.07;;;20.90;49.20;;;;;;5010311;28;20061;-63
2022/11/12 00:30:30;;;;;;;9.70;7.40;;;20.90;49.30;;;;;;5009461;28;20037;-64
2022/11/12 00:33:01;;;;;;;10.45;7.00;;;20.90;49.20;;;;;;5010164;28;20060;-63
2022/11/12 00:35:31;;;;;;;9.88;6.82;;;20.90;49.20;;;;;;5010069;28;20416;-64
2022/11/12 00:37:59;;;;;;;8.07;6.30;;;21.00;49.20;;;;;;5010043;28;20118;-63
2022/11/12 00:40:27;;;;;;;7.90;6.22;;;21.00;49.10;;;;;;5009589;28;20045;-63
2022/11/12 00:42:54;;;;;;;8.68;6.68;;;21.00;49.60;;;;;;4991879;28;20057;-64
2022/11/12 00:45:21;;;;;;;9.98;6.15;;;20.90;49.00;;;;;;5009445;28;20046;-64
2022/11/12 00:47:49;;;;;;;9.30;6.68;;;21.00;49.00;;;;;;5008260;28;20274;-64
2022/11/12 00:50:16;;;;;;;7.93;6.18;;;20.90;48.90;;;;;;5009665;28;20057;-64
2022/11/12 00:52:43;;;;;;;8.75;6.80;;;20.90;48.90;;;;;;5009544;28;20056;-64
2022/11/12 00:55:10;;;;;;;7.43;6.32;;;21.00;49.00;;;;;;5008747;28;20038;-64
2022/11/12 00:57:37;;;;;;;7.65;6.15;;;21.00;49.00;;;;;;4988038;28;20057;-64
2022/11/12 01:00:06;;;;;;;6.68;5.85;;;21.00;49.00;;;;;;5009544;28;20210;-64
2022/11/12 01:02:33;;;;;;;8.95;6.97;;;21.00;49.00;;;;;;5009668;28;20050;-64
2022/11/12 01:05:09;;;;;;;8.20;5.90;;;20.90;48.90;;;;;;5009075;28;20176;-63
2022/11/12 01:07:36;;;;;;;10.10;7.05;;;20.90;48.90;;;;;;5009573;28;20057;-64
2022/11/12 01:10:03;;;;;;;10.27;7.15;;;21.00;49.00;;;;;;4991385;28;20050;-64
2022/11/12 01:12:31;;;;;;;8.38;5.97;;;20.90;48.90;;;;;;5008840;28;20053;-64
2022/11/12 01:14:58;;;;;;;9.45;6.45;;;20.90;48.90;;;;;;5009502;28;20046;-64
2022/11/12 01:17:26;;;;;;;8.10;6.40;;;20.90;48.90;;;;;;5008845;28;20060;-64
2022/11/12 01:19:53;;;;;;;8.00;6.78;;;20.90;49.00;;;;;;5008525;28;20042;-64
2022/11/12 01:22:20;;;;;;;7.57;6.28;;;20.90;49.00;;;;;;5009534;28;20051;-64
2022/11/12 01:24:47;;;;;;;7.55;6.32;;;20.90;49.00;;;;;;5008837;28;20412;-64
2022/11/12 01:27:14;;;;;;;7.78;5.82;;;20.90;49.00;;;;;;5006705;28;20050;-64
2022/11/12 01:29:41;;;;;;;7.50;5.85;;;20.90;49.00;;;;;;5005923;28;20526;-64
2022/11/12 01:32:08;;;;;;;7.05;5.50;;;20.90;49.50;;;;;;5008883;28;20053;-64
2022/11/12 01:34:35;;;;;;;5.88;5.13;;;20.90;49.00;;;;;;5008618;28;20060;-63
2022/11/12 01:37:02;;;;;;;6.28;5.28;;;20.90;49.00;;;;;;5008399;28;20046;-64
2022/11/12 01:39:29;;;;;;;7.43;5.80;;;20.90;48.90;;;;;;5009229;28;20053;-64
2022/11/12 01:41:56;;;;;;;7.50;5.50;;;20.90;48.90;;;;;;5008274;28;20085;-63
2022/11/12 01:44:25;;;;;;;7.63;5.75;;;20.90;48.90;;;;;;5008748;28;20347;-64
2022/11/12 01:47:19;;;;;;;7.53;6.10;;;20.90;49.00;;;;;;5008658;28;20133;-64
2022/11/12 01:49:58;;;;;;;7.57;5.75;;;20.90;48.90;;;;;;5008795;28;20049;-64
2022/11/12 01:52:34;;;;;;;7.88;5.47;;;20.90;48.90;;;;;;5025670;28;20060;-64
2022/11/12 01:55:10;;;;;;;8.82;5.70;;;20.80;48.90;;;;;;5028203;28;20041;-63
2022/11/12 01:57:44;;;;;;;8.38;5.75;;;20.90;48.90;;;;;;5027839;28;20509;-64
2022/11/12 02:00:13;;;;;;;7.03;5.45;;;20.90;48.90;;;;;;5023430;28;20042;-64
2022/11/12 02:02:43;;;;;;;6.57;5.38;;;20.90;49.40;;;;;;5028945;28;20045;-64
2022/11/12 02:05:12;;;;;;;8.40;5.82;;;20.90;48.90;;;;;;5028058;28;20041;-63
2022/11/12 02:07:41;;;;;;;6.05;4.93;;;20.90;48.90;;;;;;5028189;28;20053;-64
2022/11/12 02:10:09;;;;;;;6.88;5.45;;;20.90;48.90;;;;;;5011055;28;20073;-64
2022/11/12 02:15:25;;;;;;;7.00;5.60;;;20.90;48.90;;;;;;5028308;28;20399;-64
2022/11/12 02:17:52;;;;;;;6.20;5.00;;;20.90;48.80;;;;;;5028021;28;20056;-64
2022/11/12 02:20:19;;;;;;;6.30;5.45;;;20.80;48.80;;;;;;5027909;28;20046;-64
2022/11/12 02:22:47;;;;;;;5.70;5.10;;;20.90;48.80;;;;;;5028027;28;20239;-64
2022/11/12 02:25:21;;;;;;;6.55;5.38;;;20.80;48.80;;;;;;5027133;28;20569;-64
2022/11/12 02:27:50;;;;;;;6.18;5.55;;;20.80;48.90;;;;;;5028752;28;20187;-64
2022/11/12 02:30:19;;;;;;;6.85;5.15;;;20.80;48.90;;;;;;5010023;28;20091;-64
2022/11/12 02:32:46;;;;;;;6.93;5.15;;;20.80;49.50;;;;;;5004404;28;20046;-64
2022/11/12 02:35:13;;;;;;;6.22;5.35;;;20.80;49.00;;;;;;5007844;28;20046;-64
2022/11/12 02:37:40;;;;;;;5.95;4.65;;;20.80;49.00;;;;;;4990893;28;20057;-64
2022/11/12 02:40:08;;;;;;;6.35;5.03;;;20.80;49.00;;;;;;5008656;28;20050;-64
2022/11/12 02:42:35;;;;;;;5.25;4.65;;;20.80;49.00;;;;;;5008536;28;20054;-64
2022/11/12 02:45:02;;;;;;;6.90;5.45;;;20.70;49.00;;;;;;5008201;28;20050;-64
2022/11/12 02:47:29;;;;;;;5.72;4.75;;;20.80;49.10;;;;;;5007977;28;20049;-64
2022/11/12 02:49:59;;;;;;;6.55;4.65;;;20.70;49.00;;;;;;5007751;28;20060;-64
2022/11/12 02:52:26;;;;;;;7.22;6.00;;;20.80;49.00;;;;;;5008678;28;20423;-64
2022/11/12 02:54:53;;;;;;;6.40;5.18;;;20.80;48.90;;;;;;4990289;28;20046;-64
2022/11/12 02:57:20;;;;;;;6.75;4.93;;;20.80;48.80;;;;;;4990239;28;20080;-64
2022/11/12 02:59:48;;;;;;;5.38;4.72;;;20.80;48.80;;;;;;5008187;28;20052;-64
2022/11/12 03:02:15;;;;;;;6.63;5.28;;;20.80;48.70;;;;;;5007859;28;20068;-64
2022/11/12 03:04:42;;;;;;;4.97;4.10;;;20.80;48.70;;;;;;5003625;28;20053;-64
2022/11/12 03:07:15;;;;;;;5.57;4.95;;;20.80;48.70;;;;;;5009232;28;20112;-64
2022/11/12 03:09:42;;;;;;;6.18;4.43;;;20.80;48.70;;;;;;5028176;28;20088;-64
2022/11/12 03:12:09;;;;;;;4.97;4.38;;;20.80;48.70;;;;;;5013209;28;20041;-64
2022/11/12 03:14:36;;;;;;;6.82;4.63;;;20.80;48.70;;;;;;5031160;28;20064;-64
2022/11/12 03:17:03;;;;;;;5.18;4.35;;;20.80;48.70;;;;;;5030988;28;20048;-64
2022/11/12 03:19:30;;;;;;;4.65;4.22;;;20.80;49.20;;;;;;5013106;28;20055;-64
2022/11/12 03:21:57;;;;;;;5.28;4.47;;;20.80;48.70;;;;;;5031029;28;20052;-64
2022/11/12 03:24:24;;;;;;;4.68;4.15;;;20.80;48.60;;;;;;5031237;28;20438;-64
2022/11/12 03:26:51;;;;;;;4.88;4.18;;;20.80;48.70;;;;;;5030818;28;20048;-64
2022/11/12 03:29:18;;;;;;;5.28;4.18;;;20.80;48.70;;;;;;5031171;28;20049;-64
2022/11/12 03:31:45;;;;;;;5.35;4.28;;;20.80;48.70;;;;;;5031084;28;20049;-64
2022/11/12 03:34:12;;;;;;;5.78;3.80;;;20.80;48.70;;;;;;5013584;28;20053;-64
2022/11/12 03:36:39;;;;;;;5.22;3.78;;;20.80;48.70;;;;;;5025696;28;20053;-65
2022/11/12 03:39:07;;;;;;;5.97;4.47;;;20.80;48.70;;;;;;5012943;28;20045;-64
2022/11/12 03:41:34;;;;;;;5.95;4.30;;;20.80;48.60;;;;;;5030683;28;20057;-64
2022/11/12 03:44:01;;;;;;;6.28;4.20;;;20.80;48.60;;;;;;5030375;28;20466;-64
2022/11/12 03:46:28;;;;;;;6.40;4.65;;;20.80;48.60;;;;;;5013140;28;20045;-64
2022/11/12 03:48:55;;;;;;;4.45;3.70;;;20.80;48.60;;;;;;5030454;28;20050;-63
2022/11/12 03:51:22;;;;;;;4.60;3.95;;;20.80;48.60;;;;;;5030428;28;20410;-64
2022/11/12 03:53:49;;;;;;;6.38;4.90;;;20.80;48.60;;;;;;5030325;28;20054;-64
2022/11/12 03:56:16;;;;;;;4.50;3.78;;;20.80;48.60;;;;;;5030243;28;20045;-64
2022/11/12 03:58:43;;;;;;;4.55;4.10;;;20.80;48.60;;;;;;5012900;28;20045;-63
2022/11/12 04:01:10;;;;;;;5.15;4.05;;;20.80;48.60;;;;;;5012351;28;20053;-64
2022/11/12 04:03:38;;;;;;;4.05;3.65;;;20.80;48.60;;;;;;5030723;28;20285;-64
2022/11/12 04:08:52;;;;;;;4.22;3.67;;;20.80;48.50;;;;;;5001458;28;20082;-64
2022/11/12 04:11:19;;;;;;;4.82;4.15;;;20.80;48.50;;;;;;5010562;28;20050;-63
2022/11/12 04:13:46;;;;;;;4.13;3.47;;;20.80;48.50;;;;;;5010201;28;20581;-64
2022/11/12 04:22:06;;;;;;;5.28;3.90;;;20.80;48.50;;;;;;4995831;28;20049;-64
2022/11/12 04:27:29;;;;;;;5.38;4.13;;;20.80;48.50;;;;;;5009918;28;20041;-64
2022/11/12 04:32:55;;;;;;;3.75;3.35;;;20.80;48.50;;;;;;5029143;28;20479;-63
2022/11/12 04:35:25;;;;;;;5.05;3.78;;;20.80;48.50;;;;;;5029531;28;20045;-64
2022/11/12 04:37:52;;;;;;;3.55;3.20;;;20.80;48.40;;;;;;5011609;28;20251;-64
2022/11/12 04:46:04;;;;;;;;;;;20.70;48.50;;;;;;5015017;28;20041;-64
2022/11/12 04:48:31;;;;;;;3.45;3.10;;;20.70;48.50;;;;;;5009463;28;19922;-64
2022/11/12 04:52:03;;;;;;;4.53;3.55;;;20.70;49.10;;;;;;5009581;28;20403;-64
2022/11/12 04:53:50;;;;;;;4.88;4.07;;;20.70;48.60;;;;;;5009349;28;20049;-64
2022/11/12 04:56:17;;;;;;;4.43;3.63;;;20.70;48.60;;;;;;5008647;28;20623;-64
2022/11/12 04:58:44;;;;;;;5.00;3.60;;;20.70;48.60;;;;;;5009199;28;20046;-64
2022/11/12 05:01:11;;;;;;;3.40;3.10;;;20.70;48.60;;;;;;5009594;28;20045;-64
2022/11/12 05:03:38;;;;;;;3.83;3.42;;;20.70;48.70;;;;;;5009098;28;20046;-64
2022/11/12 05:06:50;;;;;;;4.63;3.85;;;20.60;48.60;;;;;;4991849;28;20056;-64
2022/11/12 05:08:53;;;;;;;4.95;3.63;;;20.70;48.70;;;;;;5008822;28;20496;-65
2022/11/12 05:11:20;;;;;;;4.07;3.05;;;20.70;48.60;;;;;;5009135;28;20566;-63
2022/11/12 05:13:47;;;;;;;4.25;3.50;;;20.70;48.50;;;;;;4986751;28;20056;-63
2022/11/12 05:16:14;;;;;;;4.03;3.28;;;20.70;48.40;;;;;;5009238;28;20045;-64
2022/11/12 05:18:41;;;;;;;3.90;3.50;;;20.70;48.40;;;;;;5008550;28;20046;-64
2022/11/12 05:23:55;;;;;;;3.67;2.90;;;20.70;48.30;;;;;;5008262;28;20057;-66
2022/11/12 05:26:22;;;;;;;4.78;3.70;;;20.80;48.40;;;;;;5009204;28;20459;-63
2022/11/12 05:28:49;;;;;;;4.05;3.13;;;20.70;48.30;;;;;;4991255;28;20057;-63
2022/11/12 05:31:16;;;;;;;3.47;3.17;;;20.70;48.30;;;;;;5007544;28;20503;-63
2022/11/12 05:33:43;;;;;;;3.92;3.38;;;20.80;48.30;;;;;;5007932;28;20046;-64
2022/11/12 05:36:10;;;;;;;4.78;3.08;;;20.70;48.30;;;;;;5008965;28;20042;-64
2022/11/12 05:38:38;;;;;;;4.13;3.50;;;20.70;48.00;;;;;;5008225;28;20065;-64
2022/11/12 05:41:05;;;;;;;4.00;3.58;;;20.70;47.90;;;;;;5008561;28;20280;-64
2022/11/12 05:43:32;;;;;;;4.50;3.97;;;20.70;47.80;;;;;;5008623;28;20050;-64
2022/11/12 05:45:59;;;;;;;4.70;3.75;;;20.70;47.60;;;;;;5004400;28;20129;-65
2022/11/12 05:48:26;;;;;;;4.90;4.40;;;20.80;47.60;;;;;;5008309;28;20050;-64
2022/11/12 05:50:53;;;;;;;4.70;3.67;;;20.80;47.40;;;;;;5008861;28;20046;-64
2022/11/12 05:53:41;;;;;;;4.28;3.55;;;20.80;47.40;;;;;;5008177;28;20050;-64
2022/11/12 05:56:09;;;;;;;4.60;3.85;;;20.70;47.30;;;;;;5008787;28;20049;-64
2022/11/12 05:58:37;;;;;;;9.48;3.78;;;20.70;47.40;;;;;;5008394;28;20049;-64
2022/11/12 06:01:04;;;;;;;4.53;3.60;;;20.70;47.40;;;;;;5008567;28;20236;-64
2022/11/12 06:03:31;;;;;;;3.88;3.58;;;20.70;47.40;;;;;;5008785;28;20046;-64
2022/11/12 06:05:59;;;;;;;5.10;4.00;;;20.70;47.40;;;;;;5008403;28;20049;-64
2022/11/12 06:08:26;;;;;;;5.95;4.43;;;20.70;47.30;;;;;;5008356;28;20053;-64
2022/11/12 06:10:54;;;;;;;4.57;3.97;;;20.70;47.30;;;;;;5008987;28;20181;-64
2022/11/12 06:13:23;;;;;;;4.75;4.25;;;20.70;47.40;;;;;;5008548;28;20046;-64
2022/11/12 06:15:51;;;;;;;5.63;4.18;;;20.60;47.30;;;;;;4991220;28;20519;-64
2022/11/12 06:18:19;;;;;;;4.28;3.88;;;20.60;47.30;;;;;;5003162;28;20042;-63
2022/11/12 06:21:18;;;;;;;5.03;4.13;;;20.60;47.30;;;;;;5008771;28;20057;-64
2022/11/12 06:23:33;;;;;;;4.97;4.47;;;20.60;47.20;;;;;;5007830;28;20394;-64
2022/11/12 06:26:01;;;;;;;4.78;4.20;;;20.60;47.10;;;;;;5008333;28;20057;-64
2022/11/12 06:28:28;;;;;;;6.10;4.28;;;20.60;47.10;;;;;;5008147;28;20434;-64
2022/11/12 06:30:56;;;;;;;4.20;3.80;;;20.60;47.00;;;;;;5008093;28;20054;-64
2022/11/12 06:33:23;;;;;;;4.50;4.05;;;20.60;47.00;;;;;;5008249;28;20053;-64
2022/11/12 06:36:01;;;;;;;5.47;4.22;;;20.60;46.90;;;;;;5008248;28;20073;-64
2022/11/12 06:38:34;;;;;;;4.88;4.38;;;20.60;46.90;;;;;;5008456;28;20049;-64
2022/11/12 06:41:01;;;;;;;4.90;3.97;;;20.70;46.90;;;;;;5008094;28;20060;-64
2022/11/12 06:43:30;;;;;;;5.28;4.32;;;20.60;46.80;;;;;;5007981;28;20046;-64
2022/11/12 06:45:59;;;;;;;5.72;4.47;;;20.60;46.80;;;;;;5011733;28;20050;-64
2022/11/12 06:48:28;;;;;;;4.97;4.47;;;20.70;46.80;;;;;;5010472;28;20046;-64
2022/11/12 06:50:57;;;;;;;5.22;4.72;;;20.70;46.70;;;;;;4991146;28;20054;-64
2022/11/12 06:53:24;;;;;;;5.05;4.53;;;20.70;46.60;;;;;;5011812;28;20056;-64
2022/11/12 06:55:52;;;;;;;7.55;5.13;;;20.70;46.60;;;;;;5011512;28;20048;-64
2022/11/12 06:58:19;;;;;;;5.72;4.78;;;20.70;46.60;;;;;;5011936;28;20049;-64
2022/11/12 07:00:46;;;;;;;5.05;4.50;;;20.70;46.50;;;;;;5013992;28;20042;-64
2022/11/12 07:03:13;;;;;;;5.68;4.82;;;20.70;46.40;;;;;;5029097;28;20576;-64
2022/11/12 07:05:41;;;;;;;5.47;4.85;;;20.80;46.40;;;;;;5030122;28;20553;-64
2022/11/12 07:08:08;;;;;;;5.55;4.90;;;20.80;46.40;;;;;;5030662;28;20578;-64
2022/11/12 07:10:35;;;;;;;6.07;5.25;;;20.80;46.40;;;;;;4997587;28;20075;-64
2022/11/12 07:13:02;;;;;;;5.70;4.65;;;20.80;46.30;;;;;;5031087;28;20037;-64
2022/11/12 07:15:29;;;;;;;6.25;4.78;;;20.80;46.30;;;;;;5030784;28;20562;-64
2022/11/12 07:17:56;;;;;;;7.32;5.50;;;20.80;46.30;;;;;;5031340;28;20053;-64
2022/11/12 07:20:23;;;;;;;7.95;5.38;;;20.80;46.20;;;;;;5028777;28;20046;-64
2022/11/12 07:22:51;;;;;;;5.47;4.90;;;20.80;46.10;;;;;;5028356;28;20050;-64
2022/11/12 07:25:18;;;;;;;5.55;4.90;;;20.90;46.20;;;;;;5030845;28;20055;-64
2022/11/12 07:27:45;;;;;;;6.03;5.00;;;20.90;46.10;;;;;;5031572;28;20403;-64
2022/11/12 07:30:12;;;;;;;7.05;5.60;;;20.80;46.00;;;;;;5029706;28;20062;-64
2022/11/12 07:32:39;;;;;;;6.80;5.70;;;20.90;46.00;;;;;;5030872;28;20487;-64
2022/11/12 07:35:12;;;;;;;6.22;5.15;;;20.90;45.90;;;;;;5014021;28;20048;-64
2022/11/12 07:37:40;;;;;;;6.55;5.68;;;20.90;45.90;;;;;;5030492;28;20045;-64
2022/11/12 07:40:07;;;;;;;6.70;5.75;;;20.90;45.80;;;;;;5030235;28;20049;-64
2022/11/12 07:42:34;;;;;;;6.97;5.50;;;21.00;45.80;;;;;;5030410;28;20049;-64
2022/11/12 07:45:02;;;;;;;7.22;6.25;;;21.00;45.70;;;;;;5030052;28;20045;-64
2022/11/12 07:47:29;;;;;;;6.20;5.45;;;21.00;45.60;;;;;;5030784;28;20126;-64
2022/11/12 07:49:56;;;;;;;7.22;6.45;;;21.00;45.60;;;;;;5029840;28;20046;-64
2022/11/12 07:52:23;;;;;;;7.93;6.03;;;21.00;45.50;;;;;;5030519;28;20557;-64
2022/11/12 07:54:50;;;;;;;6.28;5.68;;;21.10;45.50;;;;;;5025562;28;20050;-64
2022/11/12 07:57:17;;;;;;;7.50;5.78;;;21.00;45.40;;;;;;5029396;28;20056;-64
2022/11/12 07:59:44;;;;;;;7.05;5.65;;;21.10;45.30;;;;;;5030070;28;20050;-64
2022/11/12 08:02:12;;;;;;;6.97;5.57;;;21.20;45.40;;;;;;5030190;28;20132;-64
2022/11/12 08:04:39;;;;;;;5.88;5.28;;;21.10;45.90;;;;;;5030004;28;20057;-64
2022/11/12 08:07:06;;;;;;;6.28;5.13;;;21.10;45.30;;;;;;5011606;28;20049;-64
2022/11/12 08:09:33;;;;;;;8.70;6.35;;;21.20;45.30;;;;;;5012556;28;20141;-64
2022/11/12 08:12:00;;;;;;;6.95;6.05;;;21.10;45.10;;;;;;5030150;28;20037;-64
2022/11/12 08:14:27;;;;;;;7.07;5.60;;;21.20;45.20;;;;;;5030096;28;20053;-64
2022/11/12 08:16:54;;;;;;;7.28;5.72;;;21.20;45.20;;;;;;5012472;28;20052;-64
2022/11/12 08:19:21;;;;;;;6.72;5.80;;;21.20;45.10;;;;;;5011824;28;20487;-64
2022/11/12 08:21:49;;;;;;;7.78;6.00;;;21.20;45.10;;;;;;5029950;28;20049;-64
2022/11/12 08:24:16;;;;;;;7.82;5.95;;;21.20;45.00;;;;;;5029785;28;20434;-64
2022/11/12 08:26:43;;;;;;;6.53;5.75;;;21.30;45.00;;;;;;5007425;28;20403;-64
2022/11/12 08:29:10;;;;;;;6.75;5.60;;;21.30;45.00;;;;;;5012734;28;20072;-64
2022/11/12 08:31:37;;;;;;;5.95;5.35;;;21.30;44.90;;;;;;5029341;28;20132;-64
2022/11/12 08:34:10;;;;;;;6.07;5.47;;;21.30;44.90;;;;;;5029884;28;20053;-64
2022/11/12 08:36:42;;;;;;;7.20;6.45;;;21.30;44.90;;;;;;5029117;28;20502;-64
2022/11/12 08:39:09;;;;;;;7.72;6.15;;;21.30;44.80;;;;;;5029262;28;20060;-64
2022/11/12 08:41:36;;;;;;;7.75;6.13;;;21.30;44.80;;;;;;5029633;28;20045;-64
2022/11/12 08:44:04;;;;;;;9.50;7.07;;;21.40;44.80;;;;;;5016478;28;20060;-64
2022/11/12 08:46:34;;;;;;;8.30;6.70;;;21.40;44.80;;;;;;5009572;28;20527;-64
2022/11/12 08:49:01;;;;;;;7.97;6.72;;;21.40;44.70;;;;;;5009220;28;20267;-64
2022/11/12 08:51:28;;;;;;;6.75;6.05;;;21.40;44.70;;;;;;5009407;28;20049;-65
2022/11/12 08:53:55;;;;;;;7.68;5.93;;;21.40;44.70;;;;;;5010183;28;20347;-64
2022/11/12 08:56:22;;;;;;;8.23;6.47;;;21.40;44.70;;;;;;5009889;28;20049;-64
2022/11/12 08:58:49;;;;;;;7.30;6.43;;;21.50;44.70;;;;;;5004923;28;20266;-64
2022/11/12 09:01:17;;;;;;;7.50;6.68;;;21.50;44.60;;;;;;5008808;28;20054;-64
2022/11/12 09:03:44;;;;;;;8.88;6.85;;;21.50;44.60;;;;;;5009433;28;20487;-64
2022/11/12 09:06:11;;;;;;;7.15;6.38;;;21.50;44.60;;;;;;5009524;28;20125;-64
2022/11/12 09:08:38;;;;;;;8.43;7.00;;;21.50;44.60;;;;;;5008227;28;20066;-64
2022/11/12 09:11:05;;;;;;;6.78;6.07;;;21.50;44.60;;;;;;5009416;28;20370;-64
2022/11/12 09:13:33;;;;;;;7.10;6.40;;;21.50;44.60;;;;;;5009232;28;20046;-65
2022/11/12 09:16:05;;;;;;;7.28;6.45;;;21.50;44.50;;;;;;5008976;28;20045;-64
2022/11/12 09:18:33;;;;;;;7.50;6.07;;;21.60;44.60;;;;;;5009180;28;20057;-65
2022/11/12 09:21:06;;;;;;;8.85;6.90;;;21.50;44.50;;;;;;5008982;28;20052;-64
2022/11/12 09:23:34;;;;;;;7.25;6.30;;;21.60;44.50;;;;;;5009176;28;20054;-64
2022/11/12 09:26:02;;;;;;;6.78;5.88;;;21.60;44.50;;;;;;5009079;28;20082;-64
2022/11/12 09:28:29;;;;;;;7.90;6.53;;;21.60;44.50;;;;;;5008433;28;20046;-64
2022/11/12 09:30:56;;;;;;;6.80;6.00;;;21.60;44.50;;;;;;5004430;28;20053;-64
2022/11/12 09:33:27;;;;;;;6.70;5.95;;;21.60;44.50;;;;;;5013582;28;20037;-64
2022/11/12 09:35:55;;;;;;;7.88;6.70;;;21.60;44.50;;;;;;5028492;28;20514;-64
2022/11/12 09:38:22;;;;;;;7.03;6.32;;;21.60;44.40;;;;;;5028229;28;20045;-64
2022/11/12 09:41:06;;;;;;;7.30;6.50;;;21.60;44.40;;;;;;5028750;28;20045;-64
2022/11/12 09:43:40;;;;;;;6.55;5.88;;;21.70;44.40;;;;;;5027664;28;20227;-64
2022/11/12 09:46:28;;;;;;;8.57;7.00;;;21.70;44.30;;;;;;5028194;28;20230;-64
2022/11/12 09:49:04;;;;;;;7.28;6.20;;;21.70;44.20;;;;;;5028563;28;20051;-64
2022/11/12 09:51:40;;;;;;;7.07;6.03;;;21.70;44.20;;;;;;5028514;28;20221;-64
2022/11/12 09:54:22;;;;;;;6.25;5.63;;;21.70;44.20;;;;;;5028569;28;20407;-64
2022/11/12 09:56:50;;;;;;;6.75;6.05;;;21.70;44.10;;;;;;5028774;28;20087;-64
2022/11/12 09:59:17;;;;;;;7.57;6.35;;;21.70;44.10;;;;;;5010666;28;20567;-64
2022/11/12 10:02:05;;;;;;;9.77;6.63;;;21.80;44.10;;;;;;5028119;28;20194;-64
2022/11/12 10:04:55;;;;;;;8.50;6.20;;;21.80;44.10;;;;;;4997173;28;20370;-64
2022/11/12 10:07:42;;;;;;;;;;;21.80;44.10;;;;;;4991399;28;20511;-64
2022/11/12 10:10:17;;;;;;;7.32;6.00;;;21.80;44.00;;;;;;4990897;28;20688;-64
2022/11/12 10:13:19;;;;;;;8.15;6.80;;;21.80;44.00;;;;;;5027910;28;20458;-64
2022/11/12 10:19:46;;;;;;;8.98;6.65;;;21.90;44.00;;;;;;5019240;28;20045;-64
2022/11/12 10:22:38;;;;;;;8.15;6.30;;;21.90;43.90;;;;;;5032046;28;20049;-64
2022/11/12 10:25:18;;;;;;;7.00;6.30;;;21.90;43.90;;;;;;5031745;28;20049;-64
2022/11/12 10:27:47;;;;;;;8.15;6.28;;;21.90;43.90;;;;;;5031808;28;20045;-65
2022/11/12 10:30:17;;;;;;;8.05;7.10;;;21.90;43.90;;;;;;5032416;28;20056;-64
2022/11/12 10:32:46;;;;;;;7.53;6.82;;;21.90;43.90;;;;;;5031494;28;20048;-64
2022/11/12 10:35:17;;;;;;;8.63;6.53;;;21.90;43.90;;;;;;5032013;28;20050;-64
2022/11/12 10:37:52;;;;;;;9.82;6.07;;;21.90;43.90;;;;;;5022052;28;20038;-64
2022/11/12 10:40:35;;;;;;;8.10;6.90;;;21.90;43.90;;;;;;5028892;28;20060;-64
2022/11/12 10:43:21;;;;;;;8.45;6.43;;;21.90;43.80;;;;;;5010831;28;20427;-64
2022/11/12 10:45:49;;;;;;;8.80;6.97;;;21.90;43.80;;;;;;5021114;28;20060;-64
2022/11/12 10:48:27;;;;;;;9.40;7.22;;;21.90;44.40;;;;;;5027870;28;20053;-64
2022/11/12 10:50:55;;;;;;;7.05;6.25;;;21.90;43.90;;;;;;5028025;28;20052;-64
2022/11/12 10:53:34;;;;;;;7.97;6.78;;;21.90;43.80;;;;;;5010391;28;20041;-64
2022/11/12 10:56:04;;;;;;;7.85;6.18;;;21.90;43.80;;;;;;4998702;28;20640;-64
2022/11/12 10:58:31;;;;;;;;;;;21.90;43.80;;;;;;5013534;28;20229;-64
2022/11/12 11:01:01;;;;;;;7.13;6.43;;;21.90;43.80;;;;;;5013763;28;19925;-64
2022/11/12 11:03:47;;;;;;;;;;;21.90;43.90;;;;;;5016698;28;20057;-64
2022/11/12 11:06:22;;;;;;;7.82;6.30;;;21.90;43.90;;;;;;5028502;28;20318;-64
2022/11/12 11:08:51;;;;;;;7.00;6.30;;;21.90;43.90;;;;;;5018119;28;20050;-64
2022/11/12 11:11:23;;;;;;;7.10;5.65;;;21.90;43.90;;;;;;5024658;28;20045;-64
2022/11/12 11:13:53;;;;;;;9.38;6.13;;;21.90;43.90;;;;;;5010447;28;20041;-64
2022/11/12 11:16:27;;;;;;;7.25;6.28;;;21.90;44.00;;;;;;5022568;28;20049;-64
2022/11/12 11:19:02;;;;;;;7.78;6.20;;;21.90;43.90;;;;;;4987698;28;20045;-64
2022/11/12 11:21:59;;;;;;;6.70;5.97;;;21.90;43.80;;;;;;5011136;28;20046;-64
2022/11/12 11:24:50;;;;;;;9.77;6.63;;;21.90;43.90;;;;;;5020830;28;20050;-64
2022/11/12 11:27:37;;;;;;;;;;;21.90;43.90;;;;;;5027495;28;20486;-64
2022/11/12 11:30:18;;;;;;;6.50;5.60;;;21.90;43.80;;;;;;5027120;28;19921;-64
2022/11/12 11:33:19;;;;;;;6.25;5.55;;;21.90;43.80;;;;;;5021350;28;20054;-64
2022/11/12 11:35:58;;;;;;;6.72;5.47;;;21.90;43.80;;;;;;5010790;28;20053;-64
2022/11/12 11:38:55;;;;;;;6.13;5.53;;;21.90;43.80;;;;;;5029678;28;20404;-64
2022/11/12 11:42:02;;;;;;;6.45;5.45;;;21.90;43.80;;;;;;5009091;28;20064;-64
2022/11/12 11:44:49;;;;;;;6.65;5.25;;;22.00;43.70;;;;;;5030052;28;20420;-64
2022/11/12 11:47:40;;;;;;;6.07;5.28;;;22.00;43.70;;;;;;5010418;28;20052;-64
2022/11/12 11:50:32;;;;;;;7.18;6.10;;;22.00;43.70;;;;;;5011192;28;20057;-64
2022/11/12 11:53:17;;;;;;;5.68;4.82;;;22.00;43.60;;;;;;5016958;28;20049;-64
2022/11/12 11:56:07;;;;;;;5.82;5.30;;;22.00;43.60;;;;;;5022017;28;20061;-64
2022/11/12 11:59:02;;;;;;;6.15;4.78;;;22.10;43.60;;;;;;5010946;28;20129;-64
2022/11/12 12:01:59;;;;;;;7.00;5.43;;;22.10;43.60;;;;;;5012926;28;20041;-64
2022/11/12 12:04:44;;;;;;;6.45;4.97;;;22.10;44.10;;;;;;5027299;28;20060;-64
2022/11/12 12:07:25;;;;;;;6.18;4.95;;;22.10;43.50;;;;;;5009773;28;20054;-64
2022/11/12 12:10:24;;;;;;;5.93;4.97;;;22.10;43.50;;;;;;5024725;28;20455;-64
2022/11/12 12:13:48;;;;;;;6.63;5.40;;;22.10;43.50;;;;;;5023077;28;20045;-64
2022/11/12 12:16:49;;;;;;;5.40;4.72;;;22.10;43.50;;;;;;5016147;28;20049;-64
2022/11/12 12:19:36;;;;;;;5.75;4.85;;;22.10;43.50;;;;;;5020276;28;20058;-64
2022/11/12 12:22:08;;;;;;;6.60;4.93;;;22.10;43.40;;;;;;5012185;28;20407;-65
2022/11/12 12:25:01;;;;;;;5.78;5.18;;;22.10;43.40;;;;;;5016995;28;20394;-64
2022/11/12 12:27:43;;;;;;;4.82;4.32;;;22.10;43.40;;;;;;5023921;28;20052;-64
2022/11/12 12:30:21;;;;;;;5.20;4.53;;;22.10;43.40;;;;;;5023237;28;20047;-64
2022/11/12 12:32:55;;;;;;;6.95;4.72;;;22.10;43.40;;;;;;5021067;28;20061;-64
2022/11/12 12:35:41;;;;;;;4.47;4.07;;;22.10;43.30;;;;;;5022108;28;20045;-64
2022/11/12 12:38:33;;;;;;;5.15;4.20;;;22.20;43.40;;;;;;5015592;28;20189;-64
2022/11/12 12:41:27;;;;;;;7.03;4.70;;;22.20;43.40;;;;;;5026310;28;20057;-64
2022/11/12 12:44:01;;;;;;;5.75;4.65;;;22.20;43.30;;;;;;5005907;28;20057;-64
2022/11/12 12:46:35;;;;;;;5.22;4.65;;;22.20;43.20;;;;;;4998795;28;20060;-64
2022/11/12 12:49:04;;;;;;;5.07;4.57;;;22.20;43.20;;;;;;5018608;28;20048;-64
2022/11/12 12:51:33;;;;;;;4.90;4.40;;;22.20;43.10;;;;;;5021080;28;20092;-64
2022/11/12 12:54:00;;;;;;;5.90;5.32;;;22.30;43.20;;;;;;5006465;28;20045;-64
2022/11/12 12:56:47;;;;;;;6.60;4.88;;;22.30;43.10;;;;;;5022622;28;20056;-64
2022/11/12 12:59:20;;;;;;;5.95;4.78;;;22.30;43.10;;;;;;5003170;28;20080;-64
2022/11/12 13:01:58;;;;;;;5.45;4.60;;;22.30;43.10;;;;;;5019374;28;20060;-64
2022/11/12 13:04:53;;;;;;;5.78;4.72;;;22.30;43.10;;;;;;5021576;28;20054;-64
2022/11/12 13:07:44;;;;;;;5.47;4.05;;;22.20;43.00;;;;;;5026348;28;20045;-64
2022/11/12 13:10:49;;;;;;;4.50;4.10;;;22.30;43.10;;;;;;5026218;28;20056;-65
2022/11/12 13:13:28;;;;;;;6.07;4.20;;;22.30;43.10;;;;;;5023917;28;20056;-64
2022/11/12 13:15:59;;;;;;;6.50;4.95;;;22.30;43.10;;;;;;5013130;28;20081;-64
2022/11/12 13:18:56;;;;;;;5.07;4.18;;;22.30;43.10;;;;;;5011887;28;20050;-64
2022/11/12 13:21:23;;;;;;;5.22;4.72;;;22.30;43.20;;;;;;4979617;28;20054;-64
2022/11/12 13:24:11;;;;;;;5.93;4.35;;;22.30;43.20;;;;;;5009625;28;20046;-64
2022/11/12 13:26:54;;;;;;;5.05;4.25;;;22.30;43.30;;;;;;5010797;28;20050;-64
2022/11/12 13:29:39;;;;;;;5.35;4.60;;;22.30;43.20;;;;;;5010812;28;20077;-64
2022/11/12 13:32:32;;;;;;;4.55;4.00;;;22.20;43.30;;;;;;5008512;28;20049;-64
2022/11/12 13:35:26;;;;;;;7.40;4.93;;;22.20;43.30;;;;;;5014490;28;20092;-64
2022/11/12 13:38:11;;;;;;;4.65;4.15;;;22.20;43.30;;;;;;5008459;28;20412;-64
2022/11/12 13:40:54;;;;;;;5.55;4.72;;;22.20;43.40;;;;;;5008767;28;20468;-64
2022/11/12 13:43:38;;;;;;;5.32;4.30;;;22.20;43.40;;;;;;5008937;28;20034;-64